createdAt,value
2022-08-07T00:00:14.791Z,100855.38
2022-08-07T00:02:45.536Z,100848.28
2022-08-07T00:05:12.586Z,100849.75
2022-08-07T00:07:41.192Z,100856.00
2022-08-07T00:10:26.399Z,100852.72
2022-08-07T00:13:00.607Z,100852.00
2022-08-07T00:15:38.028Z,100847.75
2022-08-07T00:18:18.702Z,100857.00
2022-08-07T00:20:46.535Z,100847.19
2022-08-07T00:23:14.933Z,100847.81
2022-08-07T00:25:45.946Z,100838.13
2022-08-07T00:28:18.689Z,100841.41
2022-08-07T00:30:48.516Z,100841.41
2022-08-07T00:33:15.918Z,100849.25
2022-08-07T00:35:46.511Z,100846.97
2022-08-07T00:38:16.012Z,100846.44
2022-08-07T00:40:58.279Z,100833.53
2022-08-07T00:44:01.151Z,100836.50
2022-08-07T00:46:11.159Z,100832.81
2022-08-07T00:48:37.605Z,100842.22
2022-08-07T00:51:09.765Z,100837.69
2022-08-07T00:53:39.213Z,100841.66
2022-08-07T00:56:17.541Z,100830.59
2022-08-07T00:58:47.134Z,100837.41
2022-08-07T01:01:17.426Z,100836.00
2022-08-07T01:03:57.351Z,100836.00
2022-08-07T01:06:30.228Z,100837.28
2022-08-07T01:09:00.813Z,100832.88
2022-08-07T01:12:08.979Z,100837.56
2022-08-07T01:14:28.511Z,100833.16
2022-08-07T01:16:56.025Z,100835.00
2022-08-07T01:19:23.460Z,100824.94
2022-08-07T01:21:53.237Z,100839.53
2022-08-07T01:24:21.662Z,100842.69
2022-08-07T01:26:52.815Z,100833.19
2022-08-07T01:29:27.755Z,100833.19
2022-08-07T01:31:59.691Z,100834.16
2022-08-07T01:34:31.212Z,100826.63
2022-08-07T01:36:59.258Z,100836.41
2022-08-07T01:39:39.720Z,100836.59
2022-08-07T01:42:39.284Z,100836.28
2022-08-07T01:45:01.124Z,100841.09
2022-08-07T01:48:21.030Z,100841.09
2022-08-07T01:50:14.792Z,100844.78
2022-08-07T01:52:49.747Z,100839.63
2022-08-07T01:55:28.941Z,100843.47
2022-08-07T01:58:05.727Z,100847.59
2022-08-07T02:00:49.342Z,100841.47
2022-08-07T02:03:21.716Z,100839.78
2022-08-07T02:06:01.204Z,100836.50
2022-08-07T02:08:29.836Z,100842.31
2022-08-07T02:10:59.425Z,100838.88
2022-08-07T02:13:56.550Z,100845.28
2022-08-07T02:16:18.174Z,100842.13
2022-08-07T02:18:47.606Z,100844.41
2022-08-07T02:21:16.386Z,100849.94
2022-08-07T02:23:43.835Z,100848.22
2022-08-07T02:26:31.509Z,100846.66
2022-08-07T02:29:00.500Z,100846.94
2022-08-07T02:31:29.438Z,100843.78
2022-08-07T02:34:03.625Z,100846.94
2022-08-07T02:36:39.506Z,100847.19
2022-08-07T02:39:16.218Z,100852.00
2022-08-07T02:41:56.542Z,100846.91
2022-08-07T02:44:27.616Z,100843.50
2022-08-07T02:47:02.862Z,100851.72
2022-08-07T02:49:57.433Z,100844.75
2022-08-07T02:52:21.441Z,100843.91
2022-08-07T02:55:01.125Z,100845.88
2022-08-07T02:57:31.799Z,100847.56
2022-08-07T03:00:10.287Z,100842.72
2022-08-07T03:02:54.054Z,100847.41
2022-08-07T03:05:23.012Z,100842.00
2022-08-07T03:08:07.795Z,100845.94
2022-08-07T03:10:40.689Z,100841.72
2022-08-07T03:13:19.249Z,100840.16
2022-08-07T03:15:56.454Z,100830.22
2022-08-07T03:18:34.818Z,100840.16
2022-08-07T03:21:08.565Z,100830.03
2022-08-07T03:24:17.833Z,100827.75
2022-08-07T03:26:32.026Z,100830.44
2022-08-07T03:29:01.985Z,100821.50
2022-08-07T03:31:43.262Z,100825.75
2022-08-07T03:34:18.574Z,100826.00
2022-08-07T03:36:51.153Z,100829.94
2022-08-07T03:39:45.839Z,100831.06
2022-08-07T03:42:06.563Z,100833.75
2022-08-07T03:44:34.808Z,100825.09
2022-08-07T03:47:13.378Z,100822.41
2022-08-07T03:49:49.917Z,100828.25
2022-08-07T03:52:26.571Z,100820.28
2022-08-07T03:55:06.453Z,100824.09
2022-08-07T03:58:35.450Z,100823.97
2022-08-07T04:00:33.455Z,100812.34
2022-08-07T04:03:11.004Z,100814.91
2022-08-07T04:05:48.069Z,100816.63
2022-08-07T04:08:26.681Z,100814.66
2022-08-07T04:12:23.723Z,100827.84
2022-08-07T04:14:09.982Z,100833.94
2022-08-07T04:16:58.182Z,100828.31
2022-08-07T04:19:34.109Z,100838.78
2022-08-07T04:22:22.885Z,100829.59
2022-08-07T04:25:01.943Z,100834.56
2022-08-07T04:27:43.898Z,100841.41
2022-08-07T04:30:35.459Z,100838.56
2022-08-07T04:33:14.010Z,100834.03
2022-08-07T04:35:51.450Z,100835.47
2022-08-07T04:38:29.394Z,100841.88
2022-08-07T04:40:59.778Z,100840.03
2022-08-07T04:44:12.292Z,100834.13
2022-08-07T04:47:05.049Z,100836.41
2022-08-07T04:49:57.819Z,100843.56
2022-08-07T04:52:51.410Z,100844.19
2022-08-07T04:58:09.996Z,100849.56
2022-08-07T05:00:09.920Z,100843.25
2022-08-07T05:02:44.134Z,100843.69
2022-08-07T05:05:53.231Z,100848.91
2022-08-07T05:09:01.230Z,100842.56
2022-08-07T05:11:57.388Z,100836.59
2022-08-07T05:15:03.578Z,100841.69
2022-08-07T05:17:51.929Z,100841.81
2022-08-07T05:21:02.303Z,100843.94
2022-08-07T05:23:49.645Z,100843.31
2022-08-07T05:26:26.066Z,100853.00
2022-08-07T05:28:59.378Z,100856.25
2022-08-07T05:31:52.920Z,100853.81
2022-08-07T05:34:41.926Z,100852.34
2022-08-07T05:37:16.198Z,100852.81
2022-08-07T05:40:05.925Z,100859.69
2022-08-07T05:43:02.786Z,100853.25
2022-08-07T05:45:47.652Z,100852.84
2022-08-07T05:48:27.359Z,100852.97
2022-08-07T05:51:11.739Z,100855.13
2022-08-07T05:54:13.139Z,100861.06
2022-08-07T05:56:39.526Z,100861.06
2022-08-07T05:59:20.870Z,100864.38
2022-08-07T06:01:52.005Z,100864.91
2022-08-07T06:04:43.474Z,100862.66
2022-08-07T06:08:13.961Z,100863.91
2022-08-07T06:10:22.987Z,100864.06
2022-08-07T06:12:56.770Z,100854.16
2022-08-07T06:15:39.459Z,100850.59
2022-08-07T06:18:27.935Z,100850.06
2022-08-07T06:22:14.889Z,100853.97
2022-08-07T06:24:45.919Z,100854.16
2022-08-07T06:27:04.628Z,100848.41
2022-08-07T06:30:02.850Z,100844.19
2022-08-07T06:33:02.231Z,100839.66
2022-08-07T06:35:48.211Z,100840.72
2022-08-07T06:38:35.763Z,100835.16
2022-08-07T06:41:06.967Z,100841.63
2022-08-07T06:43:39.815Z,100835.28
2022-08-07T06:46:12.341Z,100839.03
2022-08-07T06:48:42.184Z,100832.31
2022-08-07T06:51:15.374Z,100836.03
2022-08-07T06:55:30.202Z,100827.72
2022-08-07T06:56:48.512Z,100827.06
2022-08-07T07:00:13.372Z,100830.47
2022-08-07T07:02:48.363Z,100837.34
2022-08-07T07:05:03.864Z,100832.66
2022-08-07T07:08:00.238Z,100826.38
2022-08-07T07:10:29.735Z,100817.16
2022-08-07T07:13:03.311Z,100823.88
2022-08-07T07:15:36.088Z,100831.13
2022-08-07T07:18:15.365Z,100828.75
2022-08-07T07:21:13.473Z,100822.13
2022-08-07T07:24:10.429Z,100827.00
2022-08-07T07:26:32.361Z,100819.28
2022-08-07T07:29:39.660Z,100818.84
2022-08-07T07:31:56.671Z,100813.91
2022-08-07T07:34:30.875Z,100815.34
2022-08-07T07:37:14.539Z,100808.84
2022-08-07T07:39:54.302Z,100811.84
2022-08-07T07:42:22.412Z,100802.13
2022-08-07T07:45:01.885Z,100804.25
2022-08-07T07:47:29.406Z,100799.72
2022-08-07T07:50:33.878Z,100791.34
2022-08-07T07:52:46.902Z,100789.59
2022-08-07T07:55:14.555Z,100785.41
2022-08-07T07:57:52.402Z,100784.25
2022-08-07T08:00:29.583Z,100784.59
2022-08-07T08:03:16.686Z,100787.63
2022-08-07T08:05:54.762Z,100788.66
2022-08-07T08:08:34.961Z,100785.72
2022-08-07T08:11:13.470Z,100785.63
2022-08-07T08:13:55.441Z,100781.53
2022-08-07T08:16:29.775Z,100776.75
2022-08-07T08:18:57.320Z,100780.53
2022-08-07T08:21:55.893Z,100783.84
2022-08-07T08:25:04.444Z,100787.63
2022-08-07T08:27:36.877Z,100788.03
2022-08-07T08:30:07.256Z,100779.50
2022-08-07T08:32:38.185Z,100787.44
2022-08-07T08:35:10.185Z,100783.59
2022-08-07T08:38:00.379Z,100775.63
2022-08-07T08:40:34.449Z,100776.16
2022-08-07T08:43:20.262Z,100778.16
2022-08-07T08:46:21.974Z,100777.75
2022-08-07T08:49:02.157Z,100785.31
2022-08-07T08:52:01.124Z,100782.22
2022-08-07T08:54:47.193Z,100770.66
2022-08-07T08:57:30.319Z,100761.38
2022-08-07T09:00:09.028Z,100762.50
2022-08-07T09:02:57.755Z,100769.59
2022-08-07T09:05:55.539Z,100770.22
2022-08-07T09:08:35.879Z,100765.56
2022-08-07T09:11:51.224Z,100764.28
2022-08-07T09:14:40.798Z,100769.44
2022-08-07T09:18:08.749Z,100769.00
2022-08-07T09:20:57.697Z,100765.94
2022-08-07T09:24:33.305Z,100761.50
2022-08-07T09:26:57.106Z,100747.84
2022-08-07T09:30:05.593Z,100750.84
2022-08-07T09:32:37.565Z,100755.44
2022-08-07T09:36:02.629Z,100750.22
2022-08-07T09:38:29.798Z,100746.09
2022-08-07T09:41:36.367Z,100736.94
2022-08-07T09:47:52.425Z,100744.34
2022-08-07T09:48:01.301Z,100738.59
2022-08-07T09:51:14.521Z,100732.28
2022-08-07T09:54:00.603Z,100737.91
2022-08-07T09:56:57.186Z,100721.69
2022-08-07T09:59:34.559Z,100708.13
2022-08-07T10:02:35.037Z,100719.94
2022-08-07T10:05:29.706Z,100707.16
2022-08-07T10:08:18.094Z,100714.25
2022-08-07T10:11:16.917Z,100713.06
2022-08-07T10:14:14.645Z,100705.91
2022-08-07T10:16:59.734Z,100698.66
2022-08-07T10:20:00.935Z,100704.78
2022-08-07T10:23:07.664Z,100697.09
2022-08-07T10:25:52.995Z,100685.50
2022-08-07T10:28:49.575Z,100689.41
2022-08-07T10:31:42.285Z,100674.56
2022-08-07T10:34:39.079Z,100668.16
2022-08-07T10:38:00.909Z,100668.56
2022-08-07T10:40:33.627Z,100668.00
2022-08-07T10:43:15.258Z,100655.66
2022-08-07T10:45:58.210Z,100663.31
2022-08-07T10:48:51.161Z,100668.38
2022-08-07T10:51:57.159Z,100657.94
2022-08-07T10:54:38.523Z,100656.19
2022-08-07T10:57:34.730Z,100654.50
2022-08-07T11:00:08.787Z,100653.19
2022-08-07T11:03:11.367Z,100642.06
2022-08-07T11:05:56.454Z,100632.91
2022-08-07T11:08:49.321Z,100631.09
2022-08-07T11:11:35.724Z,100629.06
2022-08-07T11:14:44.103Z,100634.47
2022-08-07T11:17:23.179Z,100630.69
2022-08-07T11:20:07.522Z,100627.34
2022-08-07T11:22:46.559Z,100621.34
2022-08-07T11:25:23.946Z,100620.09
2022-08-07T11:28:15.358Z,100615.75
2022-08-07T11:31:22.040Z,100605.19
2022-08-07T11:34:00.051Z,100597.50
2022-08-07T11:36:50.083Z,100608.56
2022-08-07T11:39:59.094Z,100608.91
2022-08-07T11:42:55.233Z,100608.69
2022-08-07T11:45:59.362Z,100595.22
2022-08-07T11:49:10.269Z,100585.31
2022-08-07T11:51:51.382Z,100587.28
2022-08-07T11:54:55.105Z,100584.00
2022-08-07T11:57:57.834Z,100588.44
2022-08-07T12:00:24.535Z,100574.88
2022-08-07T12:03:41.735Z,100570.41
2022-08-07T12:06:39.165Z,100566.72
2022-08-07T12:09:16.119Z,100579.31
2022-08-07T12:12:09.431Z,100560.44
2022-08-07T12:14:42.856Z,100554.50
2022-08-07T12:17:19.882Z,100560.16
2022-08-07T12:20:06.276Z,100555.84
2022-08-07T12:22:56.192Z,100552.44
2022-08-07T12:26:05.447Z,100552.00
2022-08-07T12:28:54.908Z,100541.53
2022-08-07T12:31:53.176Z,100545.84
2022-08-07T12:34:19.779Z,100534.56
2022-08-07T12:36:50.049Z,100533.97
2022-08-07T12:39:43.740Z,100524.63
2022-08-07T12:42:07.305Z,100530.81
2022-08-07T12:44:35.072Z,100537.19
2022-08-07T12:47:27.107Z,100532.06
2022-08-07T12:50:33.922Z,100531.06
2022-08-07T12:53:05.223Z,100521.69
2022-08-07T12:56:02.873Z,100520.56
2022-08-07T12:58:37.451Z,100521.59
2022-08-07T13:01:06.387Z,100518.06
2022-08-07T13:04:31.883Z,100520.97
2022-08-07T13:08:13.752Z,100522.19
2022-08-07T13:11:14.209Z,100521.38
2022-08-07T13:13:58.183Z,100512.59
2022-08-07T13:16:46.865Z,100516.88
2022-08-07T13:19:50.763Z,100513.72
2022-08-07T13:22:28.352Z,100510.47
2022-08-07T13:24:59.200Z,100513.41
2022-08-07T13:28:13.077Z,100506.41
2022-08-07T13:30:40.206Z,100497.53
2022-08-07T13:34:14.903Z,100490.28
2022-08-07T13:36:05.516Z,100502.69
2022-08-07T13:38:45.421Z,100492.88
2022-08-07T13:41:48.354Z,100487.69
2022-08-07T13:44:26.049Z,100483.81
2022-08-07T13:46:57.637Z,100477.47
2022-08-07T13:50:33.937Z,100478.38
2022-08-07T13:52:27.160Z,100472.06
2022-08-07T13:55:10.847Z,100462.38
2022-08-07T13:57:40.030Z,100460.94
2022-08-07T14:00:35.743Z,100462.78
2022-08-07T14:03:29.011Z,100463.28
2022-08-07T14:06:05.997Z,100465.09
2022-08-07T14:08:33.793Z,100457.53
2022-08-07T14:11:14.476Z,100475.13
2022-08-07T14:13:45.169Z,100465.72
2022-08-07T14:16:17.426Z,100464.09
2022-08-07T14:18:49.919Z,100458.00
2022-08-07T14:22:01.876Z,100454.06
2022-08-07T14:24:28.703Z,100448.00
2022-08-07T14:28:09.373Z,100444.91
2022-08-07T14:30:06.276Z,100451.19
2022-08-07T14:32:45.730Z,100447.72
2022-08-07T14:35:45.024Z,100446.19
2022-08-07T14:38:26.588Z,100447.16
2022-08-07T14:41:12.345Z,100441.75
2022-08-07T14:43:58.901Z,100448.88
2022-08-07T14:46:33.186Z,100449.31
2022-08-07T14:49:17.287Z,100437.84
2022-08-07T14:52:05.109Z,100441.34
2022-08-07T14:54:41.962Z,100443.72
2022-08-07T15:00:05.000Z,100439.19
2022-08-07T15:02:34.490Z,100443.28
2022-08-07T15:05:03.119Z,100433.94
2022-08-07T15:10:26.689Z,100439.94
2022-08-07T15:12:58.366Z,100434.84
2022-08-07T15:15:34.542Z,100436.91
2022-08-07T15:18:14.048Z,100428.84
2022-08-07T15:25:15.313Z,100431.00
2022-08-07T15:26:46.757Z,100428.59
2022-08-07T15:30:06.816Z,100425.91
2022-08-07T15:34:56.966Z,100422.53
2022-08-07T15:40:33.783Z,100421.69
2022-08-07T15:43:10.453Z,100414.50
2022-08-07T15:46:04.538Z,100420.19
2022-08-07T15:49:11.635Z,100408.97
2022-08-07T15:54:19.005Z,100411.22
2022-08-07T15:56:48.281Z,100407.03
2022-08-07T15:59:20.255Z,100415.03
2022-08-07T16:02:08.523Z,100408.97
2022-08-07T16:04:37.242Z,100408.53
2022-08-07T16:08:33.270Z,100402.72
2022-08-07T16:09:58.223Z,100400.53
2022-08-07T16:13:01.100Z,100398.53
2022-08-07T16:15:55.706Z,100402.97
2022-08-07T16:18:43.546Z,100397.00
2022-08-07T16:22:04.183Z,100397.28
2022-08-07T16:24:52.269Z,100399.00
2022-08-07T16:27:40.265Z,100392.97
2022-08-07T16:30:30.743Z,100395.41
2022-08-07T16:34:01.723Z,100398.94
2022-08-07T16:36:07.342Z,100393.88
2022-08-07T16:39:06.055Z,100392.81
2022-08-07T16:42:12.741Z,100395.78
2022-08-07T16:45:15.323Z,100395.25
2022-08-07T16:48:53.866Z,100396.06
2022-08-07T16:51:54.657Z,100390.53
2022-08-07T16:54:54.353Z,100395.06
2022-08-07T16:58:02.754Z,100394.25
2022-08-07T17:00:29.478Z,100393.41
2022-08-07T17:03:58.365Z,100398.97
2022-08-07T17:06:29.676Z,100396.44
2022-08-07T17:09:14.017Z,100398.03
2022-08-07T17:12:04.303Z,100393.03
2022-08-07T17:15:15.471Z,100396.06
2022-08-07T17:17:58.897Z,100395.25
2022-08-07T17:20:47.210Z,100396.66
2022-08-07T17:23:35.151Z,100398.09
2022-08-07T17:26:31.332Z,100395.06
2022-08-07T17:30:12.682Z,100396.66
2022-08-07T17:32:35.238Z,100396.13
2022-08-07T17:35:51.305Z,100396.31
2022-08-07T17:38:38.223Z,100408.09
2022-08-07T17:42:04.984Z,100403.31
2022-08-07T17:44:54.642Z,100399.22
2022-08-07T17:47:55.788Z,100406.31
2022-08-07T17:51:06.805Z,100406.53
2022-08-07T17:53:59.974Z,100399.09
2022-08-07T17:56:34.849Z,100399.19
2022-08-07T17:59:19.762Z,100402.25
2022-08-07T18:01:52.755Z,100397.28
2022-08-07T18:04:40.717Z,100398.09
2022-08-07T18:07:20.565Z,100396.00
2022-08-07T18:10:06.144Z,100397.06
2022-08-07T18:12:49.696Z,100401.91
2022-08-07T18:15:23.009Z,100405.66
2022-08-07T18:18:46.069Z,100404.75
2022-08-07T18:21:10.963Z,100402.16
2022-08-07T18:23:50.875Z,100403.16
2022-08-07T18:26:34.244Z,100399.53
2022-08-07T18:30:07.238Z,100397.97
2022-08-07T18:32:09.117Z,100402.97
2022-08-07T18:34:53.318Z,100407.25
2022-08-07T18:38:58.250Z,100405.66
2022-08-07T18:40:59.812Z,100414.41
2022-08-07T18:44:03.321Z,100411.56
2022-08-07T18:46:59.644Z,100419.84
2022-08-07T18:50:35.024Z,100430.66
2022-08-07T18:52:40.834Z,100423.94
2022-08-07T18:55:42.363Z,100430.09
2022-08-07T18:58:51.618Z,100435.41
2022-08-07T19:02:18.708Z,100445.72
2022-08-07T19:04:39.765Z,100450.59
2022-08-07T19:07:34.282Z,100457.53
2022-08-07T19:10:13.410Z,100457.53
2022-08-07T19:13:09.930Z,100451.81
2022-08-07T19:16:05.130Z,100458.38
2022-08-07T19:18:55.047Z,100465.06
2022-08-07T19:21:46.629Z,100455.19
2022-08-07T19:24:30.462Z,100465.25
2022-08-07T19:28:30.269Z,100465.88
2022-08-07T19:31:03.259Z,100463.53
2022-08-07T19:32:44.764Z,100465.19
2022-08-07T19:35:22.455Z,100462.66
2022-08-07T19:37:57.528Z,100469.31
2022-08-07T19:40:31.090Z,100471.00
2022-08-07T19:42:58.442Z,100466.75
2022-08-07T19:46:04.817Z,100468.00
2022-08-07T19:48:18.387Z,100475.34
2022-08-07T19:50:53.162Z,100473.03
2022-08-07T19:54:29.669Z,100473.44
2022-08-07T19:56:59.734Z,100473.88
2022-08-07T19:58:57.387Z,100465.03
2022-08-07T20:01:52.677Z,100480.13
2022-08-07T20:04:12.604Z,100480.56
2022-08-07T20:06:59.178Z,100479.44
2022-08-07T20:10:37.126Z,100476.72
2022-08-07T20:12:31.984Z,100478.59
2022-08-07T20:15:02.770Z,100474.97
2022-08-07T20:17:31.456Z,100480.19
2022-08-07T20:20:04.964Z,100483.13
2022-08-07T20:22:35.899Z,100483.75
2022-08-07T20:25:12.777Z,100485.19
2022-08-07T20:27:58.042Z,100488.31
2022-08-07T20:30:35.184Z,100489.28
2022-08-07T20:33:04.030Z,100498.66
2022-08-07T20:35:51.760Z,100499.63
2022-08-07T20:38:21.694Z,100498.06
2022-08-07T20:40:53.743Z,100492.19
2022-08-07T20:43:25.198Z,100496.81
2022-08-07T20:46:28.786Z,100503.97
2022-08-07T20:48:58.008Z,100489.38
2022-08-07T20:51:30.730Z,100501.53
2022-08-07T20:54:08.654Z,100495.25
2022-08-07T20:56:48.384Z,100503.97
2022-08-07T21:00:05.318Z,100502.41
2022-08-07T21:02:08.567Z,100508.34
2022-08-07T21:04:49.913Z,100515.78
2022-08-07T21:07:29.268Z,100516.91
2022-08-07T21:10:00.401Z,100520.59
2022-08-07T21:12:31.034Z,100512.53
2022-08-07T21:15:07.961Z,100518.34
2022-08-07T21:18:03.076Z,100514.91
2022-08-07T21:20:29.628Z,100521.84
2022-08-07T21:22:58.313Z,100521.97
2022-08-07T21:25:43.625Z,100521.50
2022-08-07T21:28:49.299Z,100519.69
2022-08-07T21:31:11.972Z,100521.47
2022-08-07T21:34:08.081Z,100524.47
2022-08-07T21:36:56.676Z,100526.38
2022-08-07T21:39:47.435Z,100524.50
2022-08-07T21:42:46.189Z,100535.03
2022-08-07T21:46:05.418Z,100523.19
2022-08-07T21:48:28.849Z,100524.81
2022-08-07T21:51:20.410Z,100528.44
2022-08-07T21:53:54.020Z,100533.88
2022-08-07T21:57:16.096Z,100525.78
2022-08-07T22:00:22.799Z,100530.94
2022-08-07T22:03:03.577Z,100534.03
2022-08-07T22:05:46.138Z,100539.22
2022-08-07T22:08:18.562Z,100540.81
2022-08-07T22:10:49.754Z,100536.59
2022-08-07T22:13:17.339Z,100535.91
2022-08-07T22:16:43.620Z,100543.94
2022-08-07T22:18:55.525Z,100540.06
2022-08-07T22:22:04.546Z,100539.97
2022-08-07T22:24:21.070Z,100534.56
2022-08-07T22:27:01.447Z,100544.94
2022-08-07T22:29:48.052Z,100539.88
2022-08-07T22:32:44.193Z,100535.00
2022-08-07T22:35:11.387Z,100546.53
2022-08-07T22:38:03.581Z,100542.66
2022-08-07T22:41:02.703Z,100546.06
2022-08-07T22:43:49.653Z,100546.13
2022-08-07T22:47:02.483Z,100537.97
2022-08-07T22:49:54.148Z,100541.22
2022-08-07T22:52:49.061Z,100552.97
2022-08-07T22:55:47.458Z,100552.34
2022-08-07T22:58:33.436Z,100545.06
2022-08-07T23:01:41.970Z,100552.03
2022-08-07T23:04:57.708Z,100556.13
2022-08-07T23:07:42.388Z,100551.72
2022-08-07T23:10:37.281Z,100555.81
2022-08-07T23:13:48.971Z,100551.41
2022-08-07T23:16:54.320Z,100550.59
2022-08-07T23:20:00.154Z,100557.56
2022-08-07T23:22:41.211Z,100544.16
2022-08-07T23:25:28.520Z,100551.97
2022-08-07T23:28:33.422Z,100552.81
2022-08-07T23:31:11.469Z,100557.25
2022-08-07T23:34:34.366Z,100551.81
2022-08-07T23:37:20.492Z,100557.38
2022-08-07T23:40:14.487Z,100558.06
2022-08-07T23:43:17.067Z,100554.16
2022-08-07T23:46:23.481Z,100563.00
2022-08-07T23:49:17.983Z,100557.06
2022-08-07T23:53:05.839Z,100558.56
2022-08-07T23:54:51.930Z,100559.91
2022-08-07T23:57:34.929Z,100563.63
